Millington, TN (38053)

9:12 PM CST on February 07, 2016 (GMT -0600)
Lucy | | Change Station
CLOSE
Current Station
Personal Weather Station
Location: Millington, TN
Elevation: 276 ft
Nearby Weather Stations

Elev 276 ft 35.31 °N, 89.93 °W | Updated 3 minutes ago

Mostly Cloudy
Mostly Cloudy
48.6 °F
Feels Like 49 °F
N
0.0
Wind Variable Wind from NW
Gusts 0.0 mph

Today
High -- | Low -- °F
--% Chance of Precip.
Yesterday
High -- | Low -- °F
Precip. -- in
Pressure 29.98 in
Visibility 10.0 miles
Clouds Mostly Cloudy 25000 ft
Windchill 49 °F
Dew Point 31 °F
Humidity 51%
Rainfall 0.00 in
Snow Depth Not available.
6:54 AM 5:33 PM
Waning Crescent, 0% visible
METAR KNQA 080050Z 21007KT 10SM BKN250 11/01 A2998
Pressure 29.98 in
Visibility 10.0 miles
Clouds Mostly Cloudy 25000 ft
Windchill 49 °F
Dew Point 31 °F
Humidity 51%
Rainfall 0.00 in
Snow Depth Not available.
6:54 AM 5:33 PM
Waning Crescent, 0% visible
METAR KNQA 080050Z 21007KT 10SM BKN250 11/01 A2998

10-Day Weather Forecast

Almanac

Astronomy

Feb. 07, 2016 Rise Set
Actual Time
Civil Twilight
Nautical Twilight
Astronomical Twilight
Moon
Length of Visible Light
Length of Day
Tomorrow will be .
, % of the Moon is Illuminated

Today's Extremes

State Highs State Lows

Community

WunderPhotos

Upload Photos

1,891,375 photos uploaded!

WunderBlog® & News

Nearby

Air Quality

  Air Quality AQ Index Pollutant
Not available.

Snow Depth

Station Depth Elevation

Earthquake Activity

City Distance Mag. Time & Date
Minimum magnitude displayed is 2.5.

Coastal Water Temperatures

Place Temperature

Stations

Nearby Weather Stations

Station Location Temp. Windchill Dew Point Humidity Wind Precip. Elev Updated Type
                   

Watches & Warnings

There are currently no watches in effect.